Latest Weather Observations for Lake Macquarie - Cooranbong

IDN60901

Issued at 10:21 pm EST Saturday 25 June 2016 (issued every 10 minutes, with the page automatically refreshed every 10 minutes)

About weather observations | Map of Sydney area stations | Latest observations for Sydney area | Other Formats
Station Details ID: 061412 Name: LAKE MACQUARIE AWS Lat: -33.09 Lon: 151.46 Height: 6.0 m
Data from the previous 72 hours. | See also: Recent months at Lake Macquarie - Cooranbong
Date/Time
EST
Temp
°C
App
Temp
°C
Dew
Point
°C
Rel
Hum
%
Delta-T
°C
Wind Press
QNH
hPa
Press
MSL
hPa
Rain since
9am
mm
Dir  Spd
km/h
Gust
km/h
Spd
kts
Gust
kts
25/10:00pm 1.4 -0.6 0.2 92 0.4 CALM 0 0 0 0 1020.8 1020.8 0.0
25/09:30pm 1.6 -0.3 0.4 92 0.4 CALM 0 0 0 0 1020.9 1020.9 0.0
25/09:00pm 2.2 0.4 0.9 91 0.5 CALM 0 0 0 0 1020.8 1020.8 0.0
25/08:30pm 2.3 0.4 0.7 89 0.6 CALM 0 0 0 0 1020.6 1020.6 0.0
25/08:00pm 2.7 0.8 0.8 87 0.7 CALM 0 0 0 0 1020.6 1020.6 0.0
25/07:30pm 3.5 1.7 1.5 87 0.8 CALM 0 0 0 0 1020.4 1020.4 0.0
25/07:00pm 4.1 2.4 1.8 85 0.9 CALM 0 0 0 0 1020.4 1020.4 0.0
25/06:30pm 4.9 3.2 1.9 81 1.2 CALM 0 0 0 0 1020.1 1020.1 0.0
25/06:00pm 5.8 4.2 2.4 79 1.4 CALM 0 0 0 0 1020.0 1020.0 0.0
25/05:30pm 6.0 3.8 1.3 72 1.9 SW 2 4 1 2 1019.5 1019.5 0.0
25/05:00pm 8.7 6.8 0.7 57 3.2 CALM 0 0 0 0 1019.3 1019.3 0.0
25/04:30pm 11.4 8.8 -2.0 39 5.2 SW 2 6 1 3 1019.2 1019.2 0.0
25/04:00pm 13.3 9.6 -4.3 29 6.6 SW 6 13 3 7 1019.0 1019.0 0.0
25/03:30pm 13.8 10.1 -4.4 28 6.9 SW 6 13 3 7 1018.7 1018.7 0.0
25/03:00pm 14.0 9.7 -5.2 26 7.1 WSW 9 22 5 12 1018.5 1018.5 0.0
25/02:30pm 14.1 9.0 -5.6 25 7.3 W 13 24 7 13 1018.4 1018.4 0.0
25/02:00pm 13.9 9.2 -4.8 27 7.0 SW 11 20 6 11 1018.2 1018.2 0.0
25/01:30pm 13.6 8.1 -5.0 27 6.9 W 15 28 8 15 1018.1 1018.1 0.0
25/01:00pm 13.6 9.0 -4.1 29 6.7 SW 11 20 6 11 1018.4 1018.4 0.0
25/12:30pm 13.4 8.8 -4.2 29 6.7 SW 11 24 6 13 1018.5 1018.5 0.0
25/12:00pm 12.7 7.7 -4.4 30 6.4 WSW 13 32 7 17 1018.7 1018.7 0.0
25/11:30am 12.5 7.5 -4.6 30 6.3 WSW 13 22 7 12 1018.9 1018.9 0.0
25/11:00am 11.9 6.9 -4.7 31 6.1 W 13 20 7 11 1019.1 1019.1 0.0
25/10:30am 11.4 5.9 -5.1 31 6.0 WSW 15 28 8 15 1019.2 1019.2 0.0
25/10:00am 11.0 6.0 -4.6 33 5.7 WSW 13 22 7 12 1019.1 1019.1 0.0
25/09:30am 10.6 5.6 -4.6 34 5.5 W 13 19 7 10 1019.0 1019.0 0.0
25/09:00am 10.3 6.5 -3.7 37 5.2 WNW 7 15 4 8 1018.7 1018.7 0.2
25/08:30am 9.3 5.1 -3.6 40 4.7 WNW 9 17 5 9 1018.4 1018.4 0.2
25/08:00am 8.1 4.4 -2.5 47 3.9 NW 7 13 4 7 1018.3 1018.3 0.2
25/07:30am 6.7 3.2 -1.7 55 3.1 NNW 7 15 4 8 1018.1 1018.1 0.2
25/07:00am 5.8 2.7 -2.3 56 2.9 NNW 4 9 2 5 1017.6 1017.6 0.2
25/06:30am 6.5 3.4 -2.9 51 3.4 NNE 4 7 2 4 1017.2 1017.2 0.2
25/06:00am 7.4 3.7 -3.2 47 3.8 NNW 7 11 4 6 1016.6 1016.6 0.2
25/05:30am 8.3 3.4 -3.5 43 4.3 W 13 20 7 11 1015.9 1015.9 0.2
25/05:00am 8.5 3.6 -3.0 44 4.2 W 13 22 7 12 1015.4 1015.4 0.2
25/04:30am 8.0 4.0 -2.3 48 3.8 WNW 9 17 5 9 1015.2 1015.2 0.2
25/04:00am 8.4 4.8 -2.0 48 3.9 W 7 20 4 11 1015.1 1015.1 0.2
25/03:30am 8.6 5.0 -2.3 46 4.1 WNW 7 15 4 8 1014.7 1014.7 0.2
25/03:00am 9.0 4.6 -2.6 44 4.3 W 11 26 6 14 1014.4 1014.4 0.2
25/02:30am 9.2 4.4 -2.7 43 4.4 WSW 13 26 7 14 1013.9 1013.9 0.2
25/02:00am 9.6 3.6 -3.0 41 4.7 W 19 39 10 21 1013.3 1013.3 0.2
25/01:30am 9.7 3.1 -2.9 41 4.7 W 22 41 12 22 1012.9 1012.9 0.2
25/01:00am 9.6 2.7 -2.7 42 4.6 W 24 41 13 22 1012.6 1012.6 0.2
25/12:30am 9.8 3.3 -2.8 41 4.7 W 22 35 12 19 1012.3 1012.3 0.2
25/12:00am 9.7 3.6 -2.6 42 4.6 W 20 43 11 23 1012.2 1012.2 0.2
 
Date/Time
EST
Temp
°C
App
Temp
°C
Dew
Point
°C
Rel
Hum
%
Delta-T
°C
Wind Press
QNH
hPa
Press
MSL
hPa
Rain since
9am
mm
Dir  Spd
km/h
Gust
km/h
Spd
kts
Gust
kts
24/11:30pm 9.7 3.6 -2.6 42 4.6 W 20 41 11 22 1012.1 1012.1 0.2
24/11:00pm 9.8 3.6 -2.8 41 4.7 W 20 44 11 24 1012.1 1012.1 0.2
24/10:30pm 9.8 3.8 -3.1 40 4.8 W 19 37 10 20 1011.9 1011.9 0.2
24/10:00pm 9.9 1.9 -2.7 41 4.7 W 30 57 16 31 1011.3 1011.3 0.2
24/09:41pm 9.9 2.3 -1.8 44 4.5 W 28 54 15 29 1011.0 1011.0 0.2
24/09:30pm 9.7 3.0 -1.3 46 4.3 W 24 41 13 22 1010.7 1010.7 0.2
24/09:00pm 9.7 4.3 -1.1 47 4.2 W 17 32 9 17 1010.7 1010.7 0.2
24/08:30pm 9.9 4.6 -0.9 47 4.2 W 17 33 9 18 1010.4 1010.4 0.2
24/08:00pm 10.3 4.6 -0.8 46 4.4 W 19 35 10 19 1009.9 1009.9 0.2
24/07:30pm 10.7 4.0 -1.4 43 4.7 W 24 39 13 21 1009.3 1009.3 0.2
24/07:08pm 10.7 3.3 -0.7 45 4.5 W 28 48 15 26 1008.9 1008.9 0.2
24/07:00pm 10.6 4.7 -0.5 46 4.4 W 20 46 11 25 1009.0 1009.0 0.2
24/06:30pm 10.7 5.0 0.4 49 4.2 W 20 41 11 22 1008.5 1008.5 0.2
24/06:00pm 10.8 5.0 0.2 48 4.3 W 20 39 11 21 1007.6 1007.6 0.2
24/05:49pm 11.1 3.8 0.2 47 4.4 W 28 52 15 28 1007.6 1007.6 0.2
24/05:30pm 11.4 5.6 -0.1 45 4.7 W 20 37 11 20 1007.4 1007.4 0.2
24/05:24pm 11.7 4.4 -0.1 44 4.8 W 28 54 15 29 1007.4 1007.4 0.2
24/05:00pm 12.1 7.0 0.5 45 4.8 WNW 17 35 9 19 1007.0 1007.0 0.2
24/04:49pm 12.6 5.3 -0.3 41 5.3 W 28 48 15 26 1006.7 1006.7 0.2
24/04:30pm 13.9 7.4 -2.1 33 6.4 W 22 39 12 21 1006.4 1006.4 0.2
24/04:00pm 15.1 10.8 -1.9 31 6.9 WNW 11 20 6 11 1005.4 1005.4 0.2
24/03:30pm 15.8 9.8 -3.1 27 7.5 WNW 19 33 10 18 1005.0 1005.0 0.2
24/03:00pm 16.3 11.7 -1.3 30 7.3 W 13 24 7 13 1004.5 1004.5 0.2
24/02:30pm 16.5 12.3 -1.1 30 7.4 W 11 17 6 9 1004.2 1004.2 0.2
24/02:04pm 16.5 9.0 -1.6 29 7.5 WNW 28 46 15 25 1003.8 1003.8 0.2
24/02:00pm 16.4 9.7 -1.2 30 7.4 WNW 24 46 13 25 1003.7 1003.7 0.2
24/01:30pm 16.0 10.4 0.2 34 6.8 WNW 19 37 10 20 1004.0 1004.0 0.2
24/01:00pm 15.5 10.1 2.7 42 5.8 WNW 20 35 11 19 1004.0 1004.0 0.2
24/12:30pm 14.9 10.8 6.0 55 4.3 W 17 30 9 16 1004.6 1004.6 0.2
24/12:00pm 15.6 10.8 4.6 48 5.2 NW 19 37 10 20 1004.5 1004.5 0.2
24/11:30am 15.3 10.6 6.1 54 4.4 WNW 20 37 11 20 1005.0 1005.0 0.2
24/11:00am 14.5 10.9 8.2 66 3.2 WNW 17 33 9 18 1005.3 1005.3 0.2
24/10:30am 16.8 12.2 5.7 48 5.4 NW 19 32 10 17 1005.2 1005.2 0.0
24/10:00am 17.2 11.9 5.2 45 5.8 WNW 22 43 12 23 1005.0 1005.0 0.0
24/09:30am 16.7 12.2 5.9 49 5.2 NW 19 33 10 18 1004.8 1004.8 0.0
24/09:00am 16.1 12.4 6.3 52 4.8 NW 15 32 8 17 1004.5 1004.5 0.0
24/08:30am 15.6 12.4 6.9 56 4.3 NW 13 24 7 13 1004.3 1004.3 0.0
24/08:00am 15.1 12.7 7.2 59 3.9 NW 9 22 5 12 1004.1 1004.1 0.0
24/07:30am 13.9 11.9 7.2 64 3.3 WNW 7 15 4 8 1003.9 1003.9 0.0
24/07:00am 12.8 11.2 8.1 73 2.3 NW 6 17 3 9 1003.9 1003.9 0.0
24/06:30am 9.0 8.3 7.0 87 0.9 CALM 0 7 0 4 1004.0 1004.0 0.0
24/06:00am 9.9 9.4 7.7 86 1.1 CALM 0 2 0 1 1004.0 1004.0 0.0
24/05:30am 10.3 9.3 7.5 83 1.3 NNE 2 4 1 2 1003.9 1003.9 0.0
24/05:00am 11.8 11.3 7.7 76 2.0 CALM 0 0 0 0 1003.7 1003.7 0.0
24/04:30am 13.3 12.2 8.4 72 2.4 NNW 4 11 2 6 1003.5 1003.5 0.0
24/04:00am 12.7 11.6 8.4 75 2.1 NNW 4 7 2 4 1003.8 1003.8 0.0
24/03:30am 14.3 12.9 8.9 70 2.7 NNW 6 9 3 5 1004.3 1004.3 0.0
24/03:00am 14.0 12.6 9.0 72 2.5 NNW 6 7 3 4 1004.6 1004.6 0.0
24/02:30am 14.4 13.1 9.2 71 2.7 NNW 6 15 3 8 1004.7 1004.7 0.0
24/02:00am 13.9 12.4 9.3 74 2.4 N 7 13 4 7 1004.7 1004.7 0.0
24/01:30am 13.7 12.1 8.7 72 2.5 N 7 15 4 8 1005.1 1005.1 0.0
24/01:00am 13.1 11.5 8.8 75 2.2 N 7 11 4 6 1005.5 1005.5 0.0
24/12:30am 13.8 12.4 9.0 73 2.4 N 6 9 3 5 1005.9 1005.9 0.0
24/12:00am 13.1 11.5 8.8 75 2.2 NNE 7 13 4 7 1006.1 1006.1 0.0
 
Date/Time
EST
Temp
°C
App
Temp
°C
Dew
Point
°C
Rel
Hum
%
Delta-T
°C
Wind Press
QNH
hPa
Press
MSL
hPa
Rain since
9am
mm
Dir  Spd
km/h
Gust
km/h
Spd
kts
Gust
kts
23/11:30pm 13.6 11.5 9.6 77 2.0 N 11 20 6 11 1006.3 1006.3 0.0
23/11:00pm 13.2 11.9 9.1 76 2.1 NNW 6 11 3 6 1006.6 1006.6 0.0
23/10:30pm 12.9 11.6 7.8 71 2.5 N 4 6 2 3 1006.7 1006.7 0.0
23/10:00pm 14.0 12.3 8.4 69 2.8 NNW 7 15 4 8 1007.0 1007.0 0.0
23/09:30pm 14.4 12.5 7.7 64 3.3 NW 7 15 4 8 1007.4 1007.4 0.0
23/09:00pm 14.7 12.4 7.5 62 3.6 NNW 9 17 5 9 1007.5 1007.5 0.0
23/08:30pm 15.0 12.7 7.3 60 3.8 NNW 9 19 5 10 1007.5 1007.5 0.0
23/08:00pm 14.9 13.1 7.0 59 3.9 NNW 6 11 3 6 1007.8 1007.8 0.0
23/07:30pm 15.3 12.8 6.6 56 4.2 NNW 9 26 5 14 1008.0 1008.0 0.0
23/07:00pm 15.5 13.0 6.5 55 4.4 NNW 9 20 5 11 1008.0 1008.0 0.0
23/06:30pm 15.4 12.9 6.7 56 4.2 N 9 20 5 11 1007.9 1007.9 0.0
23/06:00pm 14.7 12.7 7.0 60 3.8 NNW 7 15 4 8 1008.0 1008.0 0.0
23/05:30pm 14.5 13.1 7.1 61 3.6 NNW 4 9 2 5 1008.1 1008.1 0.0
23/05:00pm 15.1 13.2 6.7 57 4.1 NNW 6 13 3 7 1008.3 1008.3 0.0
23/04:30pm 15.4 13.3 6.7 56 4.2 N 7 13 4 7 1008.3 1008.3 0.0
23/04:00pm 15.7 13.1 6.2 53 4.6 NNW 9 17 5 9 1008.4 1008.4 0.0
23/03:30pm 15.9 13.2 5.8 51 4.9 NNW 9 19 5 10 1008.6 1008.6 0.0
23/03:00pm 16.3 12.8 5.6 49 5.2 NNW 13 26 7 14 1008.8 1008.8 0.0
23/02:30pm 17.4 14.3 5.7 46 5.7 NNW 11 19 6 10 1008.9 1008.9 0.0
23/02:00pm 17.0 14.0 5.9 48 5.4 NW 11 24 6 13 1009.4 1009.4 0.0
23/01:30pm 16.3 14.1 6.2 51 4.9 N 7 13 4 7 1009.9 1009.9 0.0
23/01:00pm 15.7 11.7 4.7 48 5.2 NW 15 28 8 15 1010.5 1010.5 0.0
23/12:30pm 15.1 12.3 5.0 51 4.7 NW 9 22 5 12 1011.1 1011.1 0.0
23/12:00pm 14.9 12.0 4.6 50 4.8 WNW 9 19 5 10 1011.8 1011.8 0.0
23/11:30am 15.5 12.2 4.6 48 5.1 NW 11 20 6 11 1012.6 1012.6 0.0
23/11:00am 16.0 13.2 5.3 49 5.1 NW 9 17 5 9 1013.0 1013.0 0.0
23/10:30am 15.5 12.7 5.1 50 4.9 N 9 15 5 8 1013.2 1013.2 0.0
23/10:00am 15.2 12.4 5.1 51 4.8 NNW 9 13 5 7 1013.7 1013.7 0.0
23/09:30am 14.5 12.8 7.5 63 3.5 NNE 6 9 3 5 1013.7 1013.7 0.0
23/09:00am 11.7 10.2 7.0 73 2.2 N 4 6 2 3 1013.8 1013.8 0.0
23/08:30am 8.5 7.8 7.0 90 0.7 CALM 0 4 0 2 1013.7 1013.7 0.0
23/08:00am 6.3 5.3 5.6 95 0.3 CALM 0 4 0 2 1013.7 1013.7 0.0
23/07:30am 4.9 3.6 4.0 94 0.4 CALM 0 6 0 3 1013.6 1013.6 0.0
23/07:00am 4.5 2.3 3.5 93 0.4 N 4 6 2 3 1013.4 1013.4 0.0
23/06:30am 4.7 3.3 3.5 92 0.5 CALM 0 0 0 0 1013.2 1013.2 0.0
23/06:00am 5.3 4.0 4.1 92 0.5 CALM 0 0 0 0 1012.4 1012.4 0.0
23/05:30am 5.1 3.3 3.6 90 0.6 NNE 2 4 1 2 1012.6 1012.6 0.0
23/05:00am 6.3 5.1 4.5 88 0.8 CALM 0 0 0 0 1012.5 1012.5 0.0
23/04:30am 6.8 5.6 4.8 87 0.9 CALM 0 0 0 0 1012.6 1012.6 0.0
23/04:00am 7.2 5.6 4.7 84 1.1 NW 2 4 1 2 1012.7 1012.7 0.0
23/03:30am 7.3 6.1 4.6 83 1.2 CALM 0 0 0 0 1013.0 1013.0 0.0
23/03:00am 8.1 6.1 4.5 78 1.6 N 4 9 2 5 1013.2 1013.2 0.0
23/02:30am 7.9 6.7 4.8 81 1.4 CALM 0 2 0 1 1013.2 1013.2 0.0
23/02:00am 8.3 7.1 4.5 77 1.7 CALM 0 0 0 0 1013.1 1013.1 0.0
23/01:30am 8.4 7.1 4.2 75 1.8 CALM 0 0 0 0 1013.0 1013.0 0.0
23/01:00am 9.2 7.8 3.8 69 2.4 CALM 0 2 0 1 1013.1 1013.1 0.0
23/12:30am 10.6 7.9 2.4 57 3.5 NNW 6 17 3 9 1012.9 1012.9 0.0
23/12:00am 12.6 9.8 2.2 49 4.5 WNW 6 11 3 6 1012.8 1012.8 0.0
 
Date/Time
EST
Temp
°C
App
Temp
°C
Dew
Point
°C
Rel
Hum
%
Delta-T
°C
Wind Press
QNH
hPa
Press
MSL
hPa
Rain since
9am
mm
Dir  Spd
km/h
Gust
km/h
Spd
kts
Gust
kts
22/11:30pm 13.4 10.0 1.7 45 5.0 WNW 9 22 5 12 1012.9 1012.9 0.0
22/11:00pm 13.8 10.4 2.1 45 5.1 W 9 19 5 10 1012.8 1012.8 0.0
22/10:30pm 14.1 10.0 2.4 45 5.2 W 13 24 7 13 1012.5 1012.5 0.0

Latest Capital City Observations: Canberra | Sydney | Melbourne | Brisbane | Adelaide | Perth | Hobart | Darwin

Other Formats:

Comma delimited format used in spreadsheet applications
http://www.bom.gov.au/fwo/IDN60901/IDN60901.95767.axf

JavaScript Object Notation format (JSON) in row-major order
http://www.bom.gov.au/fwo/IDN60901/IDN60901.95767.json